sensor_id;sensor_type;location;lat;lon;timestamp;P1;durP1;ratioP1;P2;durP2;ratioP2
38581;SDS011;24349;53.720;10.014;2023-04-24T00:01:27;7.10;;;5.53;;
38581;SDS011;24349;53.720;10.014;2023-04-24T00:03:54;7.28;;;6.13;;
38581;SDS011;24349;53.720;10.014;2023-04-24T00:06:24;8.75;;;6.47;;
38581;SDS011;24349;53.720;10.014;2023-04-24T00:08:58;7.65;;;5.50;;
38581;SDS011;24349;53.720;10.014;2023-04-24T00:11:25;8.32;;;6.45;;
38581;SDS011;24349;53.720;10.014;2023-04-24T00:13:51;8.10;;;6.63;;
38581;SDS011;24349;53.720;10.014;2023-04-24T00:16:17;10.60;;;6.90;;
38581;SDS011;24349;53.720;10.014;2023-04-24T00:18:43;9.35;;;6.30;;
38581;SDS011;24349;53.720;10.014;2023-04-24T00:21:10;8.38;;;6.53;;
38581;SDS011;24349;53.720;10.014;2023-04-24T00:23:35;9.23;;;6.60;;
38581;SDS011;24349;53.720;10.014;2023-04-24T00:26:01;9.32;;;6.47;;
38581;SDS011;24349;53.720;10.014;2023-04-24T00:28:27;10.25;;;7.72;;
38581;SDS011;24349;53.720;10.014;2023-04-24T00:30:53;8.88;;;7.05;;
38581;SDS011;24349;53.720;10.014;2023-04-24T00:33:19;9.85;;;6.20;;
38581;SDS011;24349;53.720;10.014;2023-04-24T00:35:45;9.52;;;7.13;;
38581;SDS011;24349;53.720;10.014;2023-04-24T00:38:10;9.63;;;6.65;;
38581;SDS011;24349;53.720;10.014;2023-04-24T00:40:36;14.07;;;7.65;;
38581;SDS011;24349;53.720;10.014;2023-04-24T00:43:02;9.45;;;6.90;;
38581;SDS011;24349;53.720;10.014;2023-04-24T00:45:27;7.63;;;6.60;;
38581;SDS011;24349;53.720;10.014;2023-04-24T00:47:53;8.60;;;7.28;;
38581;SDS011;24349;53.720;10.014;2023-04-24T00:50:19;10.00;;;7.45;;
38581;SDS011;24349;53.720;10.014;2023-04-24T00:52:46;9.65;;;8.10;;
38581;SDS011;24349;53.720;10.014;2023-04-24T00:55:12;11.15;;;8.07;;
38581;SDS011;24349;53.720;10.014;2023-04-24T00:57:37;9.73;;;7.72;;
38581;SDS011;24349;53.720;10.014;2023-04-24T01:00:04;9.88;;;8.18;;
38581;SDS011;24349;53.720;10.014;2023-04-24T01:02:32;10.63;;;7.85;;
38581;SDS011;24349;53.720;10.014;2023-04-24T01:04:59;10.48;;;7.95;;
38581;SDS011;24349;53.720;10.014;2023-04-24T01:07:26;11.25;;;8.75;;
38581;SDS011;24349;53.720;10.014;2023-04-24T01:09:52;10.07;;;7.88;;
38581;SDS011;24349;53.720;10.014;2023-04-24T01:12:18;10.02;;;7.70;;
38581;SDS011;24349;53.720;10.014;2023-04-24T01:14:44;9.80;;;7.88;;
38581;SDS011;24349;53.720;10.014;2023-04-24T01:17:10;10.40;;;7.97;;
38581;SDS011;24349;53.720;10.014;2023-04-24T01:19:36;10.07;;;7.35;;
38581;SDS011;24349;53.720;10.014;2023-04-24T01:22:03;9.82;;;7.38;;
38581;SDS011;24349;53.720;10.014;2023-04-24T01:24:35;10.50;;;7.57;;
38581;SDS011;24349;53.720;10.014;2023-04-24T01:27:01;9.40;;;7.78;;
38581;SDS011;24349;53.720;10.014;2023-04-24T01:29:27;9.90;;;8.25;;
38581;SDS011;24349;53.720;10.014;2023-04-24T01:31:53;8.73;;;7.57;;
38581;SDS011;24349;53.720;10.014;2023-04-24T01:34:19;8.82;;;7.65;;
38581;SDS011;24349;53.720;10.014;2023-04-24T01:36:45;10.63;;;7.90;;
38581;SDS011;24349;53.720;10.014;2023-04-24T01:39:11;8.77;;;7.57;;
38581;SDS011;24349;53.720;10.014;2023-04-24T01:41:38;9.05;;;7.68;;
38581;SDS011;24349;53.720;10.014;2023-04-24T01:44:03;10.18;;;6.85;;
38581;SDS011;24349;53.720;10.014;2023-04-24T01:46:29;8.55;;;7.18;;
38581;SDS011;24349;53.720;10.014;2023-04-24T01:48:56;8.23;;;6.65;;
38581;SDS011;24349;53.720;10.014;2023-04-24T01:51:24;8.15;;;6.65;;
38581;SDS011;24349;53.720;10.014;2023-04-24T01:53:50;9.07;;;6.82;;
38581;SDS011;24349;53.720;10.014;2023-04-24T01:56:15;8.93;;;6.40;;
38581;SDS011;24349;53.720;10.014;2023-04-24T01:58:41;9.23;;;6.43;;
38581;SDS011;24349;53.720;10.014;2023-04-24T02:01:08;9.20;;;6.90;;
38581;SDS011;24349;53.720;10.014;2023-04-24T02:03:33;8.05;;;6.53;;
38581;SDS011;24349;53.720;10.014;2023-04-24T02:05:59;8.25;;;6.18;;
38581;SDS011;24349;53.720;10.014;2023-04-24T02:08:24;8.85;;;6.30;;
38581;SDS011;24349;53.720;10.014;2023-04-24T02:10:50;10.07;;;6.65;;
38581;SDS011;24349;53.720;10.014;2023-04-24T02:13:16;8.98;;;6.93;;
38581;SDS011;24349;53.720;10.014;2023-04-24T02:15:41;8.90;;;6.55;;
38581;SDS011;24349;53.720;10.014;2023-04-24T02:18:07;9.77;;;6.70;;
38581;SDS011;24349;53.720;10.014;2023-04-24T02:20:32;8.05;;;5.47;;
38581;SDS011;24349;53.720;10.014;2023-04-24T02:23:01;7.35;;;4.70;;
38581;SDS011;24349;53.720;10.014;2023-04-24T02:25:27;7.18;;;4.35;;
38581;SDS011;24349;53.720;10.014;2023-04-24T02:27:53;6.78;;;4.90;;
38581;SDS011;24349;53.720;10.014;2023-04-24T02:30:18;5.85;;;4.18;;
38581;SDS011;24349;53.720;10.014;2023-04-24T02:32:44;7.53;;;4.20;;
38581;SDS011;24349;53.720;10.014;2023-04-24T02:35:10;5.53;;;3.78;;
38581;SDS011;24349;53.720;10.014;2023-04-24T02:37:36;5.47;;;3.63;;
38581;SDS011;24349;53.720;10.014;2023-04-24T02:40:01;5.68;;;3.50;;
38581;SDS011;24349;53.720;10.014;2023-04-24T02:42:27;4.97;;;3.38;;
38581;SDS011;24349;53.720;10.014;2023-04-24T02:44:53;5.40;;;3.05;;
38581;SDS011;24349;53.720;10.014;2023-04-24T02:47:18;4.82;;;2.90;;
38581;SDS011;24349;53.720;10.014;2023-04-24T02:49:44;4.70;;;2.80;;
38581;SDS011;24349;53.720;10.014;2023-04-24T02:52:09;4.82;;;2.78;;
38581;SDS011;24349;53.720;10.014;2023-04-24T02:54:35;6.20;;;2.65;;
38581;SDS011;24349;53.720;10.014;2023-04-24T02:57:01;5.28;;;2.50;;
38581;SDS011;24349;53.720;10.014;2023-04-24T02:59:26;4.60;;;2.60;;
38581;SDS011;24349;53.720;10.014;2023-04-24T03:01:54;5.00;;;2.20;;
38581;SDS011;24349;53.720;10.014;2023-04-24T03:04:19;5.03;;;2.47;;
38581;SDS011;24349;53.720;10.014;2023-04-24T03:06:45;7.03;;;2.97;;
38581;SDS011;24349;53.720;10.014;2023-04-24T03:09:11;4.40;;;2.85;;
38581;SDS011;24349;53.720;10.014;2023-04-24T03:11:36;4.65;;;2.90;;
38581;SDS011;24349;53.720;10.014;2023-04-24T03:14:02;4.72;;;2.67;;
38581;SDS011;24349;53.720;10.014;2023-04-24T03:16:28;4.10;;;2.70;;
38581;SDS011;24349;53.720;10.014;2023-04-24T03:18:53;5.78;;;3.50;;
38581;SDS011;24349;53.720;10.014;2023-04-24T03:21:19;4.93;;;3.28;;
38581;SDS011;24349;53.720;10.014;2023-04-24T03:23:44;5.22;;;3.30;;
38581;SDS011;24349;53.720;10.014;2023-04-24T03:26:10;5.97;;;3.35;;
38581;SDS011;24349;53.720;10.014;2023-04-24T03:28:36;5.25;;;3.47;;
38581;SDS011;24349;53.720;10.014;2023-04-24T03:31:02;5.78;;;3.65;;
38581;SDS011;24349;53.720;10.014;2023-04-24T03:33:28;5.93;;;3.40;;
38581;SDS011;24349;53.720;10.014;2023-04-24T03:35:54;5.45;;;3.17;;
38581;SDS011;24349;53.720;10.014;2023-04-24T03:38:20;5.07;;;3.17;;
38581;SDS011;24349;53.720;10.014;2023-04-24T03:40:46;5.35;;;3.40;;
38581;SDS011;24349;53.720;10.014;2023-04-24T03:43:11;5.00;;;3.13;;
38581;SDS011;24349;53.720;10.014;2023-04-24T03:45:37;5.60;;;3.38;;
38581;SDS011;24349;53.720;10.014;2023-04-24T03:48:02;5.05;;;3.13;;
38581;SDS011;24349;53.720;10.014;2023-04-24T03:50:28;5.05;;;3.35;;
38581;SDS011;24349;53.720;10.014;2023-04-24T03:52:54;5.35;;;3.00;;
38581;SDS011;24349;53.720;10.014;2023-04-24T03:55:20;5.15;;;3.47;;
38581;SDS011;24349;53.720;10.014;2023-04-24T03:57:45;6.22;;;3.13;;
38581;SDS011;24349;53.720;10.014;2023-04-24T04:00:11;4.55;;;2.92;;
38581;SDS011;24349;53.720;10.014;2023-04-24T04:02:37;5.00;;;3.10;;
38581;SDS011;24349;53.720;10.014;2023-04-24T04:05:02;5.53;;;2.78;;
38581;SDS011;24349;53.720;10.014;2023-04-24T04:07:28;4.90;;;3.03;;
38581;SDS011;24349;53.720;10.014;2023-04-24T04:09:54;4.63;;;2.78;;
38581;SDS011;24349;53.720;10.014;2023-04-24T04:12:20;4.90;;;2.80;;
38581;SDS011;24349;53.720;10.014;2023-04-24T04:14:46;5.38;;;2.80;;
38581;SDS011;24349;53.720;10.014;2023-04-24T04:17:11;4.78;;;2.80;;
38581;SDS011;24349;53.720;10.014;2023-04-24T04:19:37;4.10;;;2.50;;
38581;SDS011;24349;53.720;10.014;2023-04-24T04:22:02;4.80;;;2.95;;
38581;SDS011;24349;53.720;10.014;2023-04-24T04:24:28;4.38;;;2.53;;
38581;SDS011;24349;53.720;10.014;2023-04-24T04:26:54;6.53;;;3.30;;
38581;SDS011;24349;53.720;10.014;2023-04-24T04:29:21;5.43;;;2.90;;
38581;SDS011;24349;53.720;10.014;2023-04-24T04:31:47;5.40;;;2.95;;
38581;SDS011;24349;53.720;10.014;2023-04-24T04:34:13;4.35;;;2.50;;
38581;SDS011;24349;53.720;10.014;2023-04-24T04:36:39;4.03;;;2.53;;
38581;SDS011;24349;53.720;10.014;2023-04-24T04:39:05;3.92;;;2.28;;
38581;SDS011;24349;53.720;10.014;2023-04-24T04:41:31;4.53;;;2.40;;
38581;SDS011;24349;53.720;10.014;2023-04-24T04:44:00;4.10;;;2.40;;
38581;SDS011;24349;53.720;10.014;2023-04-24T04:46:26;4.20;;;2.50;;
38581;SDS011;24349;53.720;10.014;2023-04-24T04:48:52;4.65;;;2.30;;
38581;SDS011;24349;53.720;10.014;2023-04-24T04:51:19;4.28;;;2.50;;
38581;SDS011;24349;53.720;10.014;2023-04-24T04:53:45;4.10;;;2.50;;
38581;SDS011;24349;53.720;10.014;2023-04-24T04:56:11;3.97;;;2.10;;
38581;SDS011;24349;53.720;10.014;2023-04-24T04:58:36;5.05;;;2.00;;
38581;SDS011;24349;53.720;10.014;2023-04-24T05:01:02;4.57;;;2.20;;
38581;SDS011;24349;53.720;10.014;2023-04-24T05:03:28;4.97;;;2.35;;
38581;SDS011;24349;53.720;10.014;2023-04-24T05:05:54;3.95;;;2.03;;
38581;SDS011;24349;53.720;10.014;2023-04-24T05:08:19;3.85;;;2.08;;
38581;SDS011;24349;53.720;10.014;2023-04-24T05:10:45;4.00;;;2.17;;
38581;SDS011;24349;53.720;10.014;2023-04-24T05:13:10;3.75;;;2.05;;
38581;SDS011;24349;53.720;10.014;2023-04-24T05:15:36;4.07;;;2.25;;
38581;SDS011;24349;53.720;10.014;2023-04-24T05:18:02;4.00;;;1.95;;
38581;SDS011;24349;53.720;10.014;2023-04-24T05:20:28;3.80;;;2.00;;
38581;SDS011;24349;53.720;10.014;2023-04-24T05:22:53;4.53;;;2.30;;
38581;SDS011;24349;53.720;10.014;2023-04-24T05:25:19;3.58;;;2.10;;
38581;SDS011;24349;53.720;10.014;2023-04-24T05:27:44;4.47;;;2.10;;
38581;SDS011;24349;53.720;10.014;2023-04-24T05:30:11;3.70;;;1.90;;
38581;SDS011;24349;53.720;10.014;2023-04-24T05:32:37;4.15;;;1.98;;
38581;SDS011;24349;53.720;10.014;2023-04-24T05:35:02;3.70;;;2.10;;
38581;SDS011;24349;53.720;10.014;2023-04-24T05:37:28;3.95;;;1.85;;
38581;SDS011;24349;53.720;10.014;2023-04-24T05:39:54;6.47;;;2.03;;
38581;SDS011;24349;53.720;10.014;2023-04-24T05:42:20;3.78;;;1.90;;
38581;SDS011;24349;53.720;10.014;2023-04-24T05:44:45;4.30;;;2.22;;
38581;SDS011;24349;53.720;10.014;2023-04-24T05:47:11;4.25;;;2.00;;
38581;SDS011;24349;53.720;10.014;2023-04-24T05:49:36;4.28;;;2.20;;
38581;SDS011;24349;53.720;10.014;2023-04-24T05:52:02;4.65;;;2.20;;
38581;SDS011;24349;53.720;10.014;2023-04-24T05:54:29;4.53;;;1.90;;
38581;SDS011;24349;53.720;10.014;2023-04-24T05:56:55;5.07;;;1.80;;
38581;SDS011;24349;53.720;10.014;2023-04-24T05:59:20;3.50;;;1.67;;
38581;SDS011;24349;53.720;10.014;2023-04-24T06:01:46;6.88;;;1.95;;
38581;SDS011;24349;53.720;10.014;2023-04-24T06:04:12;3.47;;;1.77;;
38581;SDS011;24349;53.720;10.014;2023-04-24T06:06:40;4.22;;;1.80;;
38581;SDS011;24349;53.720;10.014;2023-04-24T06:09:06;4.38;;;2.00;;
38581;SDS011;24349;53.720;10.014;2023-04-24T06:11:32;5.20;;;1.88;;
38581;SDS011;24349;53.720;10.014;2023-04-24T06:13:58;4.50;;;2.38;;
38581;SDS011;24349;53.720;10.014;2023-04-24T06:16:23;4.78;;;2.00;;
38581;SDS011;24349;53.720;10.014;2023-04-24T06:18:49;3.90;;;1.90;;
38581;SDS011;24349;53.720;10.014;2023-04-24T06:21:15;3.95;;;2.08;;
38581;SDS011;24349;53.720;10.014;2023-04-24T06:23:41;3.50;;;2.00;;
38581;SDS011;24349;53.720;10.014;2023-04-24T06:26:07;4.18;;;1.92;;
38581;SDS011;24349;53.720;10.014;2023-04-24T06:28:32;3.95;;;2.05;;
38581;SDS011;24349;53.720;10.014;2023-04-24T06:30:58;3.88;;;2.10;;
38581;SDS011;24349;53.720;10.014;2023-04-24T06:33:24;4.25;;;2.15;;
38581;SDS011;24349;53.720;10.014;2023-04-24T06:35:49;3.50;;;1.92;;
38581;SDS011;24349;53.720;10.014;2023-04-24T06:38:15;6.05;;;2.00;;
38581;SDS011;24349;53.720;10.014;2023-04-24T06:40:41;4.35;;;2.00;;
38581;SDS011;24349;53.720;10.014;2023-04-24T06:43:06;18.95;;;4.05;;
38581;SDS011;24349;53.720;10.014;2023-04-24T06:45:32;11.23;;;3.20;;
38581;SDS011;24349;53.720;10.014;2023-04-24T06:47:57;7.45;;;2.35;;
38581;SDS011;24349;53.720;10.014;2023-04-24T06:50:23;4.07;;;2.10;;
38581;SDS011;24349;53.720;10.014;2023-04-24T06:52:49;4.68;;;2.15;;
38581;SDS011;24349;53.720;10.014;2023-04-24T06:55:15;4.20;;;1.80;;
38581;SDS011;24349;53.720;10.014;2023-04-24T06:57:41;3.60;;;1.90;;
38581;SDS011;24349;53.720;10.014;2023-04-24T07:00:07;4.18;;;1.80;;
38581;SDS011;24349;53.720;10.014;2023-04-24T07:02:34;4.25;;;1.80;;
38581;SDS011;24349;53.720;10.014;2023-04-24T07:05:00;3.80;;;1.83;;
38581;SDS011;24349;53.720;10.014;2023-04-24T07:07:26;3.83;;;1.95;;
38581;SDS011;24349;53.720;10.014;2023-04-24T07:09:52;3.75;;;1.67;;
38581;SDS011;24349;53.720;10.014;2023-04-24T07:12:19;3.97;;;1.80;;
38581;SDS011;24349;53.720;10.014;2023-04-24T07:14:46;5.03;;;2.00;;
38581;SDS011;24349;53.720;10.014;2023-04-24T07:17:12;3.95;;;1.90;;
38581;SDS011;24349;53.720;10.014;2023-04-24T07:19:38;3.88;;;2.15;;
38581;SDS011;24349;53.720;10.014;2023-04-24T07:22:04;4.50;;;2.38;;
38581;SDS011;24349;53.720;10.014;2023-04-24T07:24:30;7.00;;;2.60;;
38581;SDS011;24349;53.720;10.014;2023-04-24T07:26:57;5.70;;;2.72;;
38581;SDS011;24349;53.720;10.014;2023-04-24T07:29:23;4.00;;;2.60;;
38581;SDS011;24349;53.720;10.014;2023-04-24T07:31:48;4.25;;;2.60;;
38581;SDS011;24349;53.720;10.014;2023-04-24T07:34:14;4.38;;;2.70;;
38581;SDS011;24349;53.720;10.014;2023-04-24T07:36:40;5.13;;;2.60;;
38581;SDS011;24349;53.720;10.014;2023-04-24T07:39:06;5.57;;;2.58;;
38581;SDS011;24349;53.720;10.014;2023-04-24T07:41:32;4.30;;;2.60;;
38581;SDS011;24349;53.720;10.014;2023-04-24T07:43:58;4.68;;;2.55;;
38581;SDS011;24349;53.720;10.014;2023-04-24T07:46:24;4.55;;;2.63;;
38581;SDS011;24349;53.720;10.014;2023-04-24T07:48:50;7.05;;;3.25;;
38581;SDS011;24349;53.720;10.014;2023-04-24T07:51:15;4.82;;;3.25;;
38581;SDS011;24349;53.720;10.014;2023-04-24T07:53:42;4.68;;;2.85;;
38581;SDS011;24349;53.720;10.014;2023-04-24T07:56:08;6.25;;;3.65;;
38581;SDS011;24349;53.720;10.014;2023-04-24T07:58:34;4.55;;;3.00;;
38581;SDS011;24349;53.720;10.014;2023-04-24T08:01:00;6.07;;;3.30;;
38581;SDS011;24349;53.720;10.014;2023-04-24T08:03:25;5.50;;;3.50;;
38581;SDS011;24349;53.720;10.014;2023-04-24T08:05:51;6.07;;;3.45;;
38581;SDS011;24349;53.720;10.014;2023-04-24T08:08:17;5.75;;;3.58;;
38581;SDS011;24349;53.720;10.014;2023-04-24T08:10:44;6.03;;;4.07;;
38581;SDS011;24349;53.720;10.014;2023-04-24T08:13:09;5.75;;;4.00;;
38581;SDS011;24349;53.720;10.014;2023-04-24T08:15:36;5.30;;;4.30;;
38581;SDS011;24349;53.720;10.014;2023-04-24T08:18:02;5.50;;;4.05;;
38581;SDS011;24349;53.720;10.014;2023-04-24T08:20:27;5.97;;;4.47;;
38581;SDS011;24349;53.720;10.014;2023-04-24T08:22:53;5.72;;;4.20;;
38581;SDS011;24349;53.720;10.014;2023-04-24T08:25:20;6.07;;;4.70;;
38581;SDS011;24349;53.720;10.014;2023-04-24T08:27:47;5.13;;;3.80;;
38581;SDS011;24349;53.720;10.014;2023-04-24T08:30:13;5.68;;;4.50;;
38581;SDS011;24349;53.720;10.014;2023-04-24T08:32:39;5.55;;;4.22;;
38581;SDS011;24349;53.720;10.014;2023-04-24T08:35:05;6.55;;;4.28;;
38581;SDS011;24349;53.720;10.014;2023-04-24T08:37:30;6.30;;;4.20;;
38581;SDS011;24349;53.720;10.014;2023-04-24T08:39:57;6.20;;;4.50;;
38581;SDS011;24349;53.720;10.014;2023-04-24T08:42:23;6.22;;;3.97;;
38581;SDS011;24349;53.720;10.014;2023-04-24T08:44:49;5.20;;;3.65;;
38581;SDS011;24349;53.720;10.014;2023-04-24T08:47:15;4.93;;;3.35;;
38581;SDS011;24349;53.720;10.014;2023-04-24T08:49:41;4.88;;;3.35;;
38581;SDS011;24349;53.720;10.014;2023-04-24T08:52:08;5.85;;;3.60;;
38581;SDS011;24349;53.720;10.014;2023-04-24T08:54:34;4.97;;;3.42;;
38581;SDS011;24349;53.720;10.014;2023-04-24T08:57:01;5.07;;;3.58;;
38581;SDS011;24349;53.720;10.014;2023-04-24T08:59:28;5.60;;;4.13;;
38581;SDS011;24349;53.720;10.014;2023-04-24T09:01:55;7.75;;;5.20;;
38581;SDS011;24349;53.720;10.014;2023-04-24T09:04:22;6.72;;;5.28;;
38581;SDS011;24349;53.720;10.014;2023-04-24T09:06:50;8.15;;;5.25;;
38581;SDS011;24349;53.720;10.014;2023-04-24T09:09:19;6.65;;;5.25;;
38581;SDS011;24349;53.720;10.014;2023-04-24T09:11:45;8.40;;;5.68;;
38581;SDS011;24349;53.720;10.014;2023-04-24T09:14:13;10.52;;;7.55;;
38581;SDS011;24349;53.720;10.014;2023-04-24T09:16:41;15.15;;;8.18;;
38581;SDS011;24349;53.720;10.014;2023-04-24T09:19:07;7.80;;;6.00;;
38581;SDS011;24349;53.720;10.014;2023-04-24T09:21:33;7.53;;;6.38;;
38581;SDS011;24349;53.720;10.014;2023-04-24T09:24:00;7.57;;;5.93;;
38581;SDS011;24349;53.720;10.014;2023-04-24T09:26:29;8.02;;;6.25;;
38581;SDS011;24349;53.720;10.014;2023-04-24T09:28:57;8.02;;;6.32;;
38581;SDS011;24349;53.720;10.014;2023-04-24T09:31:22;8.90;;;6.50;;
38581;SDS011;24349;53.720;10.014;2023-04-24T09:36:37;7.47;;;6.68;;
38581;SDS011;24349;53.720;10.014;2023-04-24T09:39:08;8.63;;;6.55;;
38581;SDS011;24349;53.720;10.014;2023-04-24T09:41:47;6.97;;;6.00;;
38581;SDS011;24349;53.720;10.014;2023-04-24T09:44:23;7.60;;;6.60;;
38581;SDS011;24349;53.720;10.014;2023-04-24T09:46:52;10.18;;;6.75;;
38581;SDS011;24349;53.720;10.014;2023-04-24T09:49:23;9.15;;;6.60;;
38581;SDS011;24349;53.720;10.014;2023-04-24T09:51:50;11.68;;;6.60;;
38581;SDS011;24349;53.720;10.014;2023-04-24T09:54:16;8.13;;;6.00;;
38581;SDS011;24349;53.720;10.014;2023-04-24T09:56:47;7.88;;;6.18;;
38581;SDS011;24349;53.720;10.014;2023-04-24T09:59:14;7.63;;;6.30;;
38581;SDS011;24349;53.720;10.014;2023-04-24T10:01:41;7.40;;;6.20;;
38581;SDS011;24349;53.720;10.014;2023-04-24T10:04:19;7.68;;;5.90;;
38581;SDS011;24349;53.720;10.014;2023-04-24T10:06:47;6.95;;;5.55;;
38581;SDS011;24349;53.720;10.014;2023-04-24T10:09:14;7.85;;;5.90;;
38581;SDS011;24349;53.720;10.014;2023-04-24T10:11:42;7.18;;;5.90;;
38581;SDS011;24349;53.720;10.014;2023-04-24T10:14:17;8.70;;;6.93;;
38581;SDS011;24349;53.720;10.014;2023-04-24T10:16:44;8.85;;;6.82;;
38581;SDS011;24349;53.720;10.014;2023-04-24T10:19:11;9.55;;;6.80;;
38581;SDS011;24349;53.720;10.014;2023-04-24T10:21:38;12.05;;;8.00;;
38581;SDS011;24349;53.720;10.014;2023-04-24T10:24:07;9.88;;;7.72;;
38581;SDS011;24349;53.720;10.014;2023-04-24T10:26:34;8.40;;;7.28;;
38581;SDS011;24349;53.720;10.014;2023-04-24T10:29:00;8.98;;;7.82;;
38581;SDS011;24349;53.720;10.014;2023-04-24T10:31:26;9.93;;;8.07;;
38581;SDS011;24349;53.720;10.014;2023-04-24T10:33:55;8.65;;;7.60;;
38581;SDS011;24349;53.720;10.014;2023-04-24T10:36:23;10.52;;;7.88;;
38581;SDS011;24349;53.720;10.014;2023-04-24T10:38:52;10.18;;;8.40;;
38581;SDS011;24349;53.720;10.014;2023-04-24T10:41:20;13.90;;;8.70;;
38581;SDS011;24349;53.720;10.014;2023-04-24T10:43:48;10.80;;;8.50;;
38581;SDS011;24349;53.720;10.014;2023-04-24T10:46:29;10.57;;;8.20;;
38581;SDS011;24349;53.720;10.014;2023-04-24T10:48:55;10.57;;;8.63;;
38581;SDS011;24349;53.720;10.014;2023-04-24T10:51:23;10.55;;;8.18;;
38581;SDS011;24349;53.720;10.014;2023-04-24T10:53:50;12.65;;;9.75;;
38581;SDS011;24349;53.720;10.014;2023-04-24T10:56:16;12.27;;;9.55;;
38581;SDS011;24349;53.720;10.014;2023-04-24T10:58:43;12.85;;;9.80;;
38581;SDS011;24349;53.720;10.014;2023-04-24T11:03:56;10.75;;;9.18;;
38581;SDS011;24349;53.720;10.014;2023-04-24T11:06:29;11.90;;;9.02;;
38581;SDS011;24349;53.720;10.014;2023-04-24T11:09:07;11.30;;;9.70;;
38581;SDS011;24349;53.720;10.014;2023-04-24T11:11:35;11.93;;;9.43;;
38581;SDS011;24349;53.720;10.014;2023-04-24T11:14:03;9.95;;;8.32;;
38581;SDS011;24349;53.720;10.014;2023-04-24T11:19:07;11.93;;;9.70;;
38581;SDS011;24349;53.720;10.014;2023-04-24T11:21:39;12.38;;;10.55;;
38581;SDS011;24349;53.720;10.014;2023-04-24T11:24:21;13.80;;;11.05;;
38581;SDS011;24349;53.720;10.014;2023-04-24T11:27:14;11.80;;;9.77;;
38581;SDS011;24349;53.720;10.014;2023-04-24T11:29:41;11.95;;;9.95;;
38581;SDS011;24349;53.720;10.014;2023-04-24T11:32:41;15.23;;;9.85;;
38581;SDS011;24349;53.720;10.014;2023-04-24T11:37:38;12.55;;;9.77;;
38581;SDS011;24349;53.720;10.014;2023-04-24T11:40:06;13.00;;;10.75;;
38581;SDS011;24349;53.720;10.014;2023-04-24T11:45:07;13.48;;;9.65;;
38581;SDS011;24349;53.720;10.014;2023-04-24T11:47:43;12.40;;;9.77;;
38581;SDS011;24349;53.720;10.014;2023-04-24T11:50:11;11.52;;;8.88;;
38581;SDS011;24349;53.720;10.014;2023-04-24T11:52:38;11.43;;;9.45;;
38581;SDS011;24349;53.720;10.014;2023-04-24T11:55:22;10.85;;;9.48;;
38581;SDS011;24349;53.720;10.014;2023-04-24T11:57:57;12.90;;;11.10;;
38581;SDS011;24349;53.720;10.014;2023-04-24T12:00:26;13.10;;;9.88;;
38581;SDS011;24349;53.720;10.014;2023-04-24T12:03:03;11.75;;;10.00;;
38581;SDS011;24349;53.720;10.014;2023-04-24T12:05:36;11.50;;;10.05;;
38581;SDS011;24349;53.720;10.014;2023-04-24T12:08:02;12.75;;;9.98;;
38581;SDS011;24349;53.720;10.014;2023-04-24T12:10:29;12.77;;;10.38;;
38581;SDS011;24349;53.720;10.014;2023-04-24T12:12:56;12.98;;;9.68;;
38581;SDS011;24349;53.720;10.014;2023-04-24T12:15:23;13.88;;;10.88;;
38581;SDS011;24349;53.720;10.014;2023-04-24T12:17:52;21.83;;;12.93;;
38581;SDS011;24349;53.720;10.014;2023-04-24T12:20:23;14.70;;;10.27;;
38581;SDS011;24349;53.720;10.014;2023-04-24T12:22:55;10.57;;;9.48;;
38581;SDS011;24349;53.720;10.014;2023-04-24T12:25:23;12.20;;;8.85;;
38581;SDS011;24349;53.720;10.014;2023-04-24T12:27:54;11.55;;;8.73;;
38581;SDS011;24349;53.720;10.014;2023-04-24T12:30:29;11.35;;;7.60;;
38581;SDS011;24349;53.720;10.014;2023-04-24T12:32:59;10.45;;;8.10;;
38581;SDS011;24349;53.720;10.014;2023-04-24T12:35:28;9.38;;;7.53;;
38581;SDS011;24349;53.720;10.014;2023-04-24T12:38:05;9.52;;;6.53;;
38581;SDS011;24349;53.720;10.014;2023-04-24T12:40:34;9.93;;;7.32;;
38581;SDS011;24349;53.720;10.014;2023-04-24T12:43:00;9.75;;;7.63;;
38581;SDS011;24349;53.720;10.014;2023-04-24T12:45:26;9.25;;;7.07;;
38581;SDS011;24349;53.720;10.014;2023-04-24T12:47:52;9.30;;;6.70;;
38581;SDS011;24349;53.720;10.014;2023-04-24T12:50:18;11.57;;;8.00;;
38581;SDS011;24349;53.720;10.014;2023-04-24T12:52:44;8.95;;;7.28;;
38581;SDS011;24349;53.720;10.014;2023-04-24T12:55:10;11.68;;;8.10;;
38581;SDS011;24349;53.720;10.014;2023-04-24T12:57:38;9.90;;;7.82;;
38581;SDS011;24349;53.720;10.014;2023-04-24T13:00:05;10.82;;;8.20;;
38581;SDS011;24349;53.720;10.014;2023-04-24T13:02:32;8.98;;;7.38;;
38581;SDS011;24349;53.720;10.014;2023-04-24T13:04:59;9.20;;;7.63;;
38581;SDS011;24349;53.720;10.014;2023-04-24T13:07:25;15.95;;;8.40;;
38581;SDS011;24349;53.720;10.014;2023-04-24T13:09:51;12.15;;;8.30;;
38581;SDS011;24349;53.720;10.014;2023-04-24T13:12:18;10.60;;;7.90;;
38581;SDS011;24349;53.720;10.014;2023-04-24T13:14:44;9.15;;;7.30;;
38581;SDS011;24349;53.720;10.014;2023-04-24T13:17:10;9.25;;;6.95;;
38581;SDS011;24349;53.720;10.014;2023-04-24T13:19:37;9.60;;;6.90;;
38581;SDS011;24349;53.720;10.014;2023-04-24T13:22:04;8.68;;;7.03;;
38581;SDS011;24349;53.720;10.014;2023-04-24T13:24:30;8.23;;;6.72;;
38581;SDS011;24349;53.720;10.014;2023-04-24T13:26:57;8.02;;;6.45;;
38581;SDS011;24349;53.720;10.014;2023-04-24T13:29:23;8.95;;;7.20;;
38581;SDS011;24349;53.720;10.014;2023-04-24T13:31:52;11.25;;;6.60;;
38581;SDS011;24349;53.720;10.014;2023-04-24T13:34:20;9.18;;;5.90;;
38581;SDS011;24349;53.720;10.014;2023-04-24T13:36:46;11.70;;;6.50;;
38581;SDS011;24349;53.720;10.014;2023-04-24T13:39:11;11.73;;;6.00;;
38581;SDS011;24349;53.720;10.014;2023-04-24T13:41:37;7.47;;;6.00;;
38581;SDS011;24349;53.720;10.014;2023-04-24T13:44:03;7.35;;;6.25;;
38581;SDS011;24349;53.720;10.014;2023-04-24T13:46:29;8.07;;;6.78;;
38581;SDS011;24349;53.720;10.014;2023-04-24T13:48:55;9.05;;;6.82;;
38581;SDS011;24349;53.720;10.014;2023-04-24T13:51:21;10.38;;;7.22;;
38581;SDS011;24349;53.720;10.014;2023-04-24T13:53:48;9.02;;;6.70;;
38581;SDS011;24349;53.720;10.014;2023-04-24T13:56:13;8.90;;;7.63;;
38581;SDS011;24349;53.720;10.014;2023-04-24T13:58:39;7.68;;;6.88;;
38581;SDS011;24349;53.720;10.014;2023-04-24T14:01:05;9.27;;;7.70;;
38581;SDS011;24349;53.720;10.014;2023-04-24T14:03:31;9.60;;;7.78;;
38581;SDS011;24349;53.720;10.014;2023-04-24T14:05:58;8.52;;;6.90;;
38581;SDS011;24349;53.720;10.014;2023-04-24T14:08:23;8.43;;;6.75;;
38581;SDS011;24349;53.720;10.014;2023-04-24T14:10:50;9.18;;;7.95;;
38581;SDS011;24349;53.720;10.014;2023-04-24T14:13:15;11.60;;;7.85;;
38581;SDS011;24349;53.720;10.014;2023-04-24T14:15:41;9.80;;;7.20;;
38581;SDS011;24349;53.720;10.014;2023-04-24T14:18:07;9.32;;;7.20;;
38581;SDS011;24349;53.720;10.014;2023-04-24T14:20:32;9.60;;;7.57;;
38581;SDS011;24349;53.720;10.014;2023-04-24T14:22:58;9.40;;;7.32;;
38581;SDS011;24349;53.720;10.014;2023-04-24T14:25:24;8.40;;;7.30;;
38581;SDS011;24349;53.720;10.014;2023-04-24T14:27:50;7.20;;;6.38;;
38581;SDS011;24349;53.720;10.014;2023-04-24T14:30:16;8.18;;;6.65;;
38581;SDS011;24349;53.720;10.014;2023-04-24T14:32:42;9.07;;;6.63;;
38581;SDS011;24349;53.720;10.014;2023-04-24T14:35:08;8.43;;;7.03;;
38581;SDS011;24349;53.720;10.014;2023-04-24T14:37:33;11.25;;;9.05;;
38581;SDS011;24349;53.720;10.014;2023-04-24T14:40:00;11.15;;;9.98;;
38581;SDS011;24349;53.720;10.014;2023-04-24T14:42:26;12.77;;;11.35;;